Terminal Aerodrome Forecast
Issued by NWS

Home | Current Version | Previous Version | Graphics & Text | Print | Product List | Glossary On
Versions: 1 2 3 4 5 6 7 8 9 10 11 12 13 14 15 16 17 18
000
FTUS43 KFGF 122300
TAFBJI
TAF
KBJI 122325Z 1300/1324 27013G21KT P6SM SCT070
     FM130200 30012G20KT P6SM VCTS BKN080CB
     FM130600 31011KT P6SM SCT100
     FM131600 32015G22KT P6SM BKN080=

USA.gov is the U.S. government's official web portal to all federal, state and local government web resources and services.